createdAt,value
2018-12-27T00:02:25.226Z,102647.33
2018-12-27T00:04:52.424Z,102635.98
2018-12-27T00:07:19.678Z,102642.95
2018-12-27T00:09:46.872Z,102643.41
2018-12-27T00:12:14.117Z,102625.89
2018-12-27T00:14:41.353Z,102625.89
2018-12-27T00:17:08.623Z,102632.92
2018-12-27T00:19:35.799Z,102622.42
2018-12-27T00:22:03.017Z,102627.70
2018-12-27T00:24:30.313Z,102624.61
2018-12-27T00:26:57.513Z,102618.94
2018-12-27T00:29:24.736Z,102615.87
2018-12-27T00:31:51.986Z,102615.87
2018-12-27T00:34:19.173Z,102614.12
2018-12-27T00:36:46.432Z,102599.70
2018-12-27T00:39:13.716Z,102607.98
2018-12-27T00:41:40.938Z,102607.56
2018-12-27T00:44:08.139Z,102605.81
2018-12-27T00:46:35.361Z,102611.08
2018-12-27T00:49:02.573Z,102601.89
2018-12-27T00:51:29.802Z,102597.05
2018-12-27T00:53:57.941Z,102597.05
2018-12-27T00:56:25.153Z,102605.80
2018-12-27T00:58:52.386Z,102605.81
2018-12-27T01:01:19.558Z,102605.81
2018-12-27T01:03:46.812Z,102600.55
2018-12-27T01:06:14.027Z,102605.38
2018-12-27T01:08:41.354Z,102596.64
2018-12-27T01:11:08.518Z,102596.20
2018-12-27T01:13:35.700Z,102598.41
2018-12-27T01:16:02.937Z,102583.09
2018-12-27T01:18:30.153Z,102587.91
2018-12-27T01:20:57.349Z,102580.88
2018-12-27T01:23:24.572Z,102580.88
2018-12-27T01:25:51.823Z,102581.33
2018-12-27T01:28:19.038Z,102576.98
2018-12-27T01:30:46.234Z,102556.85
2018-12-27T01:33:18.687Z,102548.10
2018-12-27T01:35:42.568Z,102548.10
2018-12-27T01:38:09.919Z,102556.41
2018-12-27T01:40:37.137Z,102561.25
2018-12-27T01:43:04.369Z,102560.40
2018-12-27T01:45:31.599Z,102560.40
2018-12-27T01:47:58.802Z,102557.78
2018-12-27T01:50:26.029Z,102553.83
2018-12-27T01:52:53.208Z,102553.83
2018-12-27T01:55:20.451Z,102552.49
2018-12-27T01:57:47.680Z,102552.48
2018-12-27T02:00:15.043Z,102557.28
2018-12-27T02:02:42.199Z,102556.41
2018-12-27T02:05:09.422Z,102557.72
2018-12-27T02:07:36.668Z,102552.89
2018-12-27T02:10:03.870Z,102550.72
2018-12-27T02:12:31.097Z,102562.55
2018-12-27T02:14:58.290Z,102550.75
2018-12-27T02:17:25.619Z,102556.44
2018-12-27T02:19:52.808Z,102556.44
2018-12-27T02:22:19.989Z,102557.28
2018-12-27T02:24:47.273Z,102559.03
2018-12-27T02:27:14.504Z,102552.94
2018-12-27T02:29:41.722Z,102546.80
2018-12-27T02:32:08.966Z,102546.80
2018-12-27T02:34:36.161Z,102546.37
2018-12-27T02:37:03.323Z,102546.80
2018-12-27T02:39:30.591Z,102552.92
2018-12-27T02:41:57.850Z,102546.78
2018-12-27T02:44:25.062Z,102545.48
2018-12-27T02:46:52.217Z,102545.48
2018-12-27T02:49:19.481Z,102543.31
2018-12-27T02:51:46.668Z,102543.31
2018-12-27T02:54:13.895Z,102539.34
2018-12-27T02:56:41.100Z,102539.34
2018-12-27T02:59:08.303Z,102539.32
2018-12-27T03:01:35.510Z,102536.73
2018-12-27T03:04:02.728Z,102541.53
2018-12-27T03:06:29.973Z,102527.98
2018-12-27T03:08:57.194Z,102528.44
2018-12-27T03:11:24.363Z,102525.80
2018-12-27T03:13:51.576Z,102523.16
2018-12-27T03:16:18.783Z,102523.16
2018-12-27T03:18:45.988Z,102527.52
2018-12-27T03:21:13.328Z,102519.23
2018-12-27T03:23:40.532Z,102517.91
2018-12-27T03:26:07.729Z,102514.41
2018-12-27T03:28:35.083Z,102507.39
2018-12-27T03:31:02.283Z,102507.39
2018-12-27T03:33:29.517Z,102503.47
2018-12-27T03:35:56.738Z,102502.16
2018-12-27T03:38:23.933Z,102500.40
2018-12-27T03:40:51.220Z,102497.77
2018-12-27T03:43:18.543Z,102497.77
2018-12-27T03:45:45.776Z,102500.87
2018-12-27T03:48:13.025Z,102493.45
2018-12-27T03:50:40.234Z,102497.39
2018-12-27T03:53:07.443Z,102489.52
2018-12-27T03:55:34.636Z,102489.52
2018-12-27T03:58:01.908Z,102492.98
2018-12-27T04:00:29.097Z,102490.37
2018-12-27T04:02:56.314Z,102490.37
2018-12-27T04:05:23.497Z,102491.66
2018-12-27T04:07:50.744Z,102486.86
2018-12-27T04:10:17.890Z,102474.19
2018-12-27T04:12:45.083Z,102479.43
2018-12-27T04:15:12.355Z,102481.14
2018-12-27T04:17:39.536Z,102472.41
2018-12-27T04:20:06.746Z,102477.66
2018-12-27T04:22:33.997Z,102477.66
2018-12-27T04:25:01.258Z,102478.52
2018-12-27T04:27:28.470Z,102478.52
2018-12-27T04:29:55.758Z,102467.20
2018-12-27T04:32:22.986Z,102465.00
2018-12-27T04:34:50.169Z,102465.00
2018-12-27T04:37:17.443Z,102461.52
2018-12-27T04:39:44.662Z,102441.00
2018-12-27T04:42:11.920Z,102441.00
2018-12-27T04:44:39.189Z,102449.34
2018-12-27T04:47:06.411Z,102449.34
2018-12-27T04:49:33.669Z,102440.60
2018-12-27T04:52:01.039Z,102443.23
2018-12-27T04:54:28.290Z,102448.06
2018-12-27T04:56:55.481Z,102445.45
2018-12-27T04:59:22.713Z,102450.23
2018-12-27T05:01:49.934Z,102448.06
2018-12-27T05:04:18.318Z,102449.79
2018-12-27T05:06:45.900Z,102448.49
2018-12-27T05:09:13.135Z,102452.86
2018-12-27T05:11:40.323Z,102451.56
2018-12-27T05:14:07.563Z,102455.49
2018-12-27T05:16:34.761Z,102447.19
2018-12-27T05:19:01.981Z,102454.20
2018-12-27T05:21:29.177Z,102452.45
2018-12-27T05:23:56.353Z,102455.53
2018-12-27T05:26:23.582Z,102449.41
2018-12-27T05:28:50.769Z,102440.64
2018-12-27T05:31:18.012Z,102440.64
2018-12-27T05:33:45.229Z,102458.14
2018-12-27T05:36:12.413Z,102458.14
2018-12-27T05:38:39.508Z,102462.52
2018-12-27T05:41:06.749Z,102454.23
2018-12-27T05:43:33.960Z,102468.68
2018-12-27T05:46:01.152Z,102469.56
2018-12-27T05:48:28.416Z,102464.27
2018-12-27T05:50:55.616Z,102466.08
2018-12-27T05:53:22.789Z,102463.46
2018-12-27T05:55:50.013Z,102472.20
2018-12-27T05:58:17.250Z,102472.20
2018-12-27T06:00:44.470Z,102471.75
2018-12-27T06:03:11.707Z,102463.02
2018-12-27T06:05:38.905Z,102466.95
2018-12-27T06:08:06.129Z,102463.45
2018-12-27T06:10:33.313Z,102465.64
2018-12-27T06:13:00.555Z,102465.22
2018-12-27T06:15:27.748Z,102463.91
2018-12-27T06:17:54.959Z,102461.72
2018-12-27T06:20:22.153Z,102462.17
2018-12-27T06:22:49.344Z,102455.14
2018-12-27T06:25:16.557Z,102467.84
2018-12-27T06:27:43.776Z,102457.34
2018-12-27T06:30:10.970Z,102463.91
2018-12-27T06:32:38.184Z,102459.98
2018-12-27T06:35:05.371Z,102463.91
2018-12-27T06:40:06.315Z,102454.30
2018-12-27T06:42:33.569Z,102452.09
2018-12-27T06:45:00.793Z,102454.73
2018-12-27T06:47:27.973Z,102448.59
2018-12-27T06:49:55.184Z,102456.05
2018-12-27T06:52:22.408Z,102447.74
2018-12-27T06:54:49.566Z,102454.29
2018-12-27T06:57:16.746Z,102450.36
2018-12-27T06:59:44.080Z,102450.80
2018-12-27T07:02:11.275Z,102453.86
2018-12-27T07:04:38.467Z,102451.23
2018-12-27T07:07:05.725Z,102446.87
2018-12-27T07:09:32.964Z,102451.66
2018-12-27T07:12:00.171Z,102446.87
2018-12-27T07:14:27.385Z,102439.88
2018-12-27T07:19:49.248Z,102435.93
2018-12-27T07:22:16.441Z,102433.32
2018-12-27T07:24:43.621Z,102432.45
2018-12-27T07:27:10.844Z,102430.27
2018-12-27T07:29:38.006Z,102431.58
2018-12-27T07:32:05.369Z,102429.37
2018-12-27T07:34:32.571Z,102428.95
2018-12-27T07:36:59.917Z,102435.52
2018-12-27T07:39:27.081Z,102426.33
2018-12-27T07:41:54.290Z,102427.19
2018-12-27T07:44:21.559Z,102423.25
2018-12-27T07:46:48.743Z,102426.33
2018-12-27T07:49:15.966Z,102426.75
2018-12-27T07:51:43.169Z,102422.82
2018-12-27T07:54:10.369Z,102425.45
2018-12-27T07:56:37.594Z,102428.50
2018-12-27T07:59:04.886Z,102425.02
2018-12-27T08:01:32.101Z,102429.39
2018-12-27T08:03:59.287Z,102432.90
2018-12-27T08:06:26.625Z,102434.19
2018-12-27T08:08:53.808Z,102438.58
2018-12-27T08:11:21.016Z,102436.39
2018-12-27T08:13:48.239Z,102445.56
2018-12-27T08:16:15.428Z,102445.16
2018-12-27T08:18:42.690Z,102437.72
2018-12-27T08:21:09.913Z,102432.47
2018-12-27T08:23:37.101Z,102425.47
2018-12-27T08:26:04.437Z,102429.83
2018-12-27T08:28:31.635Z,102431.58
2018-12-27T08:30:58.820Z,102429.84
2018-12-27T08:33:26.082Z,102422.39
2018-12-27T08:36:12.749Z,102429.84
2018-12-27T08:38:40.076Z,102429.84
2018-12-27T08:41:07.237Z,102422.86
2018-12-27T08:43:34.463Z,102433.79
2018-12-27T08:46:01.750Z,102432.92
2018-12-27T08:48:28.934Z,102428.09
2018-12-27T08:50:56.223Z,102421.09
2018-12-27T08:53:23.428Z,102425.03
2018-12-27T08:55:50.618Z,102425.92
2018-12-27T08:58:37.280Z,102435.09
2018-12-27T09:01:04.490Z,102417.16
2018-12-27T09:03:51.219Z,102428.09
2018-12-27T09:06:18.415Z,102428.09
2018-12-27T09:08:45.596Z,102428.98
2018-12-27T09:11:12.894Z,102428.55
2018-12-27T09:13:40.070Z,102429.41
2018-12-27T09:16:07.300Z,102432.47
2018-12-27T09:18:34.480Z,102439.48
2018-12-27T09:21:01.716Z,102432.02
2018-12-27T09:23:28.888Z,102442.98
2018-12-27T09:25:56.062Z,102432.03
2018-12-27T09:28:23.257Z,102437.28
2018-12-27T09:30:50.422Z,102431.62
2018-12-27T09:33:17.613Z,102425.47
2018-12-27T09:35:44.833Z,102427.67
2018-12-27T09:38:12.165Z,102419.81
2018-12-27T09:40:39.380Z,102426.80
2018-12-27T09:43:06.564Z,102435.09
2018-12-27T09:45:33.820Z,102439.48
2018-12-27T09:48:01.035Z,102438.17
2018-12-27T09:50:28.238Z,102443.42
2018-12-27T09:52:55.471Z,102450.41
2018-12-27T09:55:22.663Z,102455.65
2018-12-27T09:57:49.998Z,102454.36
2018-12-27T10:00:17.193Z,102453.48
2018-12-27T10:02:44.391Z,102454.78
2018-12-27T10:05:11.584Z,102452.16
2018-12-27T10:07:38.771Z,102448.25
2018-12-27T10:10:06.256Z,102446.94
2018-12-27T10:12:33.403Z,102454.80
2018-12-27T10:15:00.600Z,102458.73
2018-12-27T10:17:27.848Z,102454.34
2018-12-27T10:19:55.015Z,102452.18
2018-12-27T10:22:22.286Z,102449.09
2018-12-27T10:24:49.462Z,102445.62
2018-12-27T10:27:16.632Z,102433.36
2018-12-27T10:29:43.870Z,102442.55
2018-12-27T10:32:11.107Z,102444.31
2018-12-27T10:34:38.286Z,102445.63
2018-12-27T10:37:05.608Z,102444.73
2018-12-27T10:39:32.809Z,102442.98
2018-12-27T10:42:00.082Z,102443.84
2018-12-27T10:44:27.258Z,102443.42
2018-12-27T10:46:54.498Z,102441.23
2018-12-27T10:49:21.713Z,102436.87
2018-12-27T10:51:48.984Z,102433.83
2018-12-27T10:54:16.145Z,102434.67
2018-12-27T10:56:43.371Z,102432.06
2018-12-27T10:59:10.612Z,102432.06
2018-12-27T11:01:37.820Z,102424.19
2018-12-27T11:04:05.026Z,102425.07
2018-12-27T11:06:32.255Z,102416.75
2018-12-27T11:08:59.450Z,102419.38
2018-12-27T11:11:26.695Z,102409.30
2018-12-27T11:14:13.305Z,102415.43
2018-12-27T11:16:40.549Z,102415.43
2018-12-27T11:19:07.729Z,102417.63
2018-12-27T11:21:35.048Z,102415.01
2018-12-27T11:24:02.228Z,102412.81
2018-12-27T11:26:29.429Z,102411.53
2018-12-27T11:28:56.671Z,102412.84
2018-12-27T11:31:23.829Z,102407.13
2018-12-27T11:33:51.049Z,102407.59
2018-12-27T11:36:37.637Z,102397.09
2018-12-27T11:39:05.457Z,102397.09
2018-12-27T11:41:32.661Z,102395.33
2018-12-27T11:43:59.893Z,102399.27
2018-12-27T11:46:27.094Z,102390.53
2018-12-27T11:48:54.313Z,102390.95
2018-12-27T11:51:21.559Z,102382.66
2018-12-27T11:53:48.786Z,102379.58
2018-12-27T11:56:16.064Z,102383.98
2018-12-27T11:58:43.319Z,102381.36
2018-12-27T12:01:10.529Z,102381.36
2018-12-27T12:03:37.731Z,102383.98
2018-12-27T12:06:04.952Z,102374.80
2018-12-27T12:08:32.121Z,102373.48
2018-12-27T12:10:59.373Z,102379.13
2018-12-27T12:13:26.546Z,102384.41
2018-12-27T12:15:53.856Z,102374.80
2018-12-27T12:18:21.098Z,102373.03
2018-12-27T12:20:48.274Z,102379.59
2018-12-27T12:23:15.508Z,102383.98
2018-12-27T12:25:42.693Z,102380.05
2018-12-27T12:28:09.900Z,102373.03
2018-12-27T12:30:37.132Z,102373.92
2018-12-27T12:33:04.322Z,102376.09
2018-12-27T12:35:31.555Z,102376.10
2018-12-27T12:37:58.807Z,102367.78
2018-12-27T12:40:26.028Z,102366.93
2018-12-27T12:42:53.205Z,102370.40
2018-12-27T12:45:20.523Z,102369.55
2018-12-27T12:47:47.738Z,102366.46
2018-12-27T12:50:14.919Z,102368.66
2018-12-27T12:52:42.163Z,102369.54
2018-12-27T12:55:09.412Z,102369.95
2018-12-27T12:57:36.588Z,102365.15
2018-12-27T13:00:05.695Z,102368.66
2018-12-27T13:02:32.957Z,102371.70
2018-12-27T13:05:00.245Z,102372.16
2018-12-27T13:07:27.542Z,102372.57
2018-12-27T13:09:54.785Z,102369.95
2018-12-27T13:12:21.984Z,102369.08
2018-12-27T13:14:49.300Z,102372.58
2018-12-27T13:17:16.471Z,102385.27
2018-12-27T13:19:43.685Z,102376.96
2018-12-27T13:22:11.002Z,102376.96
2018-12-27T13:24:38.188Z,102384.38
2018-12-27T13:27:05.346Z,102372.16
2018-12-27T13:29:32.550Z,102376.96
2018-12-27T13:31:59.744Z,102369.97
2018-12-27T13:34:26.941Z,102356.43
2018-12-27T13:36:54.179Z,102351.17
2018-12-27T13:39:21.372Z,102347.66
2018-12-27T13:41:48.578Z,102346.78
2018-12-27T13:44:15.808Z,102348.09
2018-12-27T13:46:43.090Z,102349.41
2018-12-27T13:49:10.281Z,102345.03
2018-12-27T13:51:37.560Z,102344.18
2018-12-27T13:54:04.741Z,102345.47
2018-12-27T13:56:32.002Z,102347.22
2018-12-27T13:58:59.411Z,102340.67
2018-12-27T14:01:26.617Z,102347.23
2018-12-27T14:03:53.852Z,102339.36
2018-12-27T14:06:21.185Z,102345.05
2018-12-27T14:08:48.364Z,102350.30
2018-12-27T14:11:35.100Z,102351.59
2018-12-27T14:14:02.287Z,102351.59
2018-12-27T14:16:29.468Z,102351.17
2018-12-27T14:18:56.690Z,102354.65
2018-12-27T14:21:23.868Z,102355.11
2018-12-27T14:23:51.044Z,102350.72
2018-12-27T14:26:18.297Z,102348.09
2018-12-27T14:28:45.591Z,102352.03
2018-12-27T14:31:12.920Z,102348.09
2018-12-27T14:33:40.093Z,102349.42
2018-12-27T14:36:07.272Z,102349.42
2018-12-27T14:38:34.503Z,102348.95
2018-12-27T14:41:01.710Z,102338.92
2018-12-27T14:43:28.929Z,102342.42
2018-12-27T14:45:56.220Z,102341.98
2018-12-27T14:48:23.494Z,102338.91
2018-12-27T14:50:50.717Z,102352.02
2018-12-27T14:53:17.886Z,102347.23
2018-12-27T14:55:45.104Z,102343.30
2018-12-27T14:58:12.316Z,102340.67
2018-12-27T15:00:39.538Z,102339.36
2018-12-27T15:03:06.720Z,102340.69
2018-12-27T15:05:33.920Z,102344.63
2018-12-27T15:08:01.122Z,102345.92
2018-12-27T15:10:28.330Z,102346.34
2018-12-27T15:12:55.665Z,102346.34
2018-12-27T15:15:22.854Z,102351.18
2018-12-27T15:17:50.023Z,102342.42
2018-12-27T15:20:17.353Z,102346.34
2018-12-27T15:23:03.966Z,102351.59
2018-12-27T15:25:31.247Z,102351.59
2018-12-27T15:27:58.444Z,102343.73
2018-12-27T15:30:25.724Z,102352.91
2018-12-27T15:32:53.052Z,102354.66
2018-12-27T15:35:20.263Z,102354.67
2018-12-27T15:37:47.447Z,102353.35
2018-12-27T15:40:14.703Z,102350.72
2018-12-27T15:42:41.875Z,102358.14
2018-12-27T15:45:28.662Z,102353.77
2018-12-27T15:47:55.888Z,102353.77
2018-12-27T15:50:23.136Z,102360.77
2018-12-27T15:52:50.306Z,102359.02
2018-12-27T15:55:17.487Z,102359.03
2018-12-27T15:57:44.740Z,102352.02
2018-12-27T16:00:11.939Z,102356.39
2018-12-27T16:02:39.132Z,102351.16
2018-12-27T16:05:06.403Z,102350.28
2018-12-27T16:07:33.588Z,102356.84
2018-12-27T16:10:00.749Z,102359.89
2018-12-27T16:12:28.073Z,102361.67
2018-12-27T16:14:55.240Z,102363.41
2018-12-27T16:17:22.919Z,102362.52
2018-12-27T16:19:50.167Z,102354.64
2018-12-27T16:22:17.397Z,102348.55
2018-12-27T16:24:44.600Z,102351.17
2018-12-27T16:27:11.852Z,102353.79
2018-12-27T16:29:39.037Z,102347.22
2018-12-27T16:32:06.242Z,102360.34
2018-12-27T16:34:33.467Z,102348.98
2018-12-27T16:37:00.653Z,102360.78
2018-12-27T16:39:27.936Z,102367.77
2018-12-27T16:41:55.273Z,102371.27
2018-12-27T16:44:22.469Z,102369.52
2018-12-27T16:46:49.816Z,102371.69
2018-12-27T16:49:17.048Z,102365.13
2018-12-27T16:51:44.227Z,102365.59
2018-12-27T16:54:11.539Z,102361.20
2018-12-27T16:56:38.734Z,102368.22
2018-12-27T16:59:25.420Z,102362.08
2018-12-27T17:02:12.052Z,102374.32
2018-12-27T17:04:39.390Z,102374.32
2018-12-27T17:07:25.999Z,102372.15
2018-12-27T17:09:53.255Z,102372.15
2018-12-27T17:12:39.850Z,102354.66
2018-12-27T17:15:07.121Z,102354.66
2018-12-27T17:17:34.366Z,102345.47
2018-12-27T17:20:01.586Z,102342.86
2018-12-27T17:22:28.889Z,102349.84
2018-12-27T17:24:56.078Z,102352.03
2018-12-27T17:30:12.547Z,102347.67
2018-12-27T17:32:39.766Z,102342.42
2018-12-27T17:35:06.947Z,102346.35
2018-12-27T17:37:34.164Z,102342.84
2018-12-27T17:40:01.408Z,102344.61
2018-12-27T17:42:28.609Z,102343.72
2018-12-27T17:44:55.874Z,102343.72
2018-12-27T17:47:23.134Z,102347.65
2018-12-27T17:49:50.358Z,102346.78
2018-12-27T17:52:17.561Z,102346.78
2018-12-27T17:54:44.728Z,102342.84
2018-12-27T17:57:12.001Z,102342.86
2018-12-27T17:59:39.192Z,102349.41
2018-12-27T18:02:06.391Z,102348.53
2018-12-27T18:04:33.609Z,102353.76
2018-12-27T18:07:00.972Z,102356.84
2018-12-27T18:09:28.137Z,102360.33
2018-12-27T18:11:55.327Z,102354.20
2018-12-27T18:14:22.644Z,102348.95
2018-12-27T18:16:49.859Z,102359.03
2018-12-27T18:19:17.042Z,102355.09
2018-12-27T18:21:44.283Z,102357.70
2018-12-27T18:24:11.522Z,102357.70
2018-12-27T18:26:38.692Z,102353.77
2018-12-27T18:29:06.007Z,102361.64
2018-12-27T18:31:33.197Z,102366.89
2018-12-27T18:34:00.381Z,102364.70
2018-12-27T18:36:27.687Z,102363.85
2018-12-27T18:38:54.883Z,102368.20
2018-12-27T18:41:22.050Z,102364.27
2018-12-27T18:43:49.255Z,102358.15
2018-12-27T18:46:16.492Z,102357.69
2018-12-27T18:48:43.740Z,102368.20
2018-12-27T18:51:10.959Z,102360.33
2018-12-27T18:53:38.169Z,102359.48
2018-12-27T18:56:05.404Z,102369.97
2018-12-27T18:58:32.606Z,102378.27
2018-12-27T19:00:59.819Z,102371.25
2018-12-27T19:03:27.037Z,102373.00
2018-12-27T19:05:54.212Z,102389.18
2018-12-27T19:08:21.457Z,102397.05
2018-12-27T19:11:27.514Z,102399.25
2018-12-27T19:13:54.689Z,102391.80
2018-12-27T19:16:21.932Z,102389.18
2018-12-27T19:18:49.537Z,102387.45
2018-12-27T19:21:40.593Z,102390.50
2018-12-27T19:24:07.821Z,102388.77
2018-12-27T19:26:35.086Z,102388.31
2018-12-27T19:29:02.294Z,102397.50
2018-12-27T19:31:29.520Z,102389.63
2018-12-27T19:33:56.767Z,102397.50
2018-12-27T19:36:23.966Z,102390.95
2018-12-27T19:38:51.190Z,102390.50
2018-12-27T19:41:18.380Z,102396.63
2018-12-27T19:43:45.748Z,102400.12
2018-12-27T19:46:12.944Z,102402.74
2018-12-27T19:48:40.209Z,102392.25
2018-12-27T19:51:07.551Z,102396.61
2018-12-27T19:53:34.739Z,102391.38
2018-12-27T19:56:01.935Z,102382.64
2018-12-27T19:58:29.174Z,102386.13
2018-12-27T20:00:56.400Z,102376.50
2018-12-27T20:03:23.675Z,102377.38
2018-12-27T20:05:50.882Z,102377.81
2018-12-27T20:08:18.120Z,102378.27
2018-12-27T20:10:45.332Z,102384.83
2018-12-27T20:13:12.526Z,102382.63
2018-12-27T20:15:39.799Z,102383.94
2018-12-27T20:18:06.983Z,102387.86
2018-12-27T20:20:34.192Z,102387.86
2018-12-27T20:23:01.480Z,102387.84
2018-12-27T20:25:48.114Z,102379.54
2018-12-27T20:28:15.324Z,102379.54
2018-12-27T20:30:42.540Z,102373.02
2018-12-27T20:33:09.779Z,102369.05
2018-12-27T20:35:36.973Z,102368.60
2018-12-27T20:38:06.871Z,102371.67
2018-12-27T20:40:33.338Z,102364.26
2018-12-27T20:43:00.549Z,102368.15
2018-12-27T20:45:47.185Z,102358.52
2018-12-27T20:48:14.397Z,102358.52
2018-12-27T20:51:01.056Z,102366.37
2018-12-27T20:53:28.285Z,102366.37
2018-12-27T20:55:55.525Z,102364.63
2018-12-27T20:58:22.737Z,102369.87
2018-12-27T21:00:49.978Z,102369.87
2018-12-27T21:05:50.266Z,102367.23
2018-12-27T21:08:17.441Z,102361.99
2018-12-27T21:10:44.687Z,102357.64
2018-12-27T21:13:31.433Z,102357.64
2018-12-27T21:15:58.651Z,102357.64
2018-12-27T21:18:25.865Z,102358.49
2018-12-27T21:20:53.102Z,102356.75
2018-12-27T21:23:20.434Z,102355.86
2018-12-27T21:25:47.644Z,102361.11
2018-12-27T21:28:14.857Z,102358.48
2018-12-27T21:30:42.119Z,102353.25
2018-12-27T21:33:28.747Z,102346.69
2018-12-27T21:35:55.996Z,102346.69
2018-12-27T21:38:42.586Z,102339.27
2018-12-27T21:41:09.794Z,102339.27
2018-12-27T21:43:56.384Z,102332.70
2018-12-27T21:46:23.640Z,102332.70
2018-12-27T21:48:50.849Z,102334.03
2018-12-27T21:51:37.665Z,102331.41
2018-12-27T21:54:04.850Z,102331.41
2018-12-27T21:56:32.028Z,102332.28
2018-12-27T21:58:59.242Z,102331.83
2018-12-27T22:01:45.864Z,102342.30
2018-12-27T22:04:13.120Z,102342.30
2018-12-27T22:06:40.341Z,102336.62
2018-12-27T22:09:27.075Z,102341.42
2018-12-27T22:11:54.253Z,102341.42
2018-12-27T22:14:21.470Z,102339.70
2018-12-27T22:16:48.817Z,102344.48
2018-12-27T22:19:15.990Z,102345.80
2018-12-27T22:21:43.178Z,102349.73
2018-12-27T22:24:10.447Z,102343.62
2018-12-27T22:26:37.738Z,102334.87
2018-12-27T22:29:05.022Z,102351.47
2018-12-27T22:31:32.402Z,102351.47
2018-12-27T22:33:59.568Z,102349.28
2018-12-27T22:36:26.817Z,102353.21
2018-12-27T22:38:54.016Z,102355.84
2018-12-27T22:41:21.362Z,102354.97
2018-12-27T22:44:07.981Z,102355.42
2018-12-27T22:46:54.724Z,102351.95
2018-12-27T22:49:41.337Z,102347.16
2018-12-27T22:52:27.981Z,102340.14
2018-12-27T22:54:55.157Z,102340.14
2018-12-27T22:57:22.516Z,102349.78
2018-12-27T22:59:49.739Z,102341.91
2018-12-27T23:02:16.941Z,102352.83
2018-12-27T23:05:03.749Z,102334.03
2018-12-27T23:07:30.953Z,102351.09
2018-12-27T23:09:58.250Z,102351.09
2018-12-27T23:12:25.420Z,102349.34
2018-12-27T23:14:52.766Z,102354.14
2018-12-27T23:17:32.867Z,102356.39
2018-12-27T23:20:00.172Z,102356.39
2018-12-27T23:22:27.389Z,102362.92
2018-12-27T23:24:54.550Z,102362.92
2018-12-27T23:27:21.788Z,102357.64
2018-12-27T23:29:49.011Z,102365.10
2018-12-27T23:32:16.228Z,102355.90
2018-12-27T23:34:43.499Z,102363.80
2018-12-27T23:37:10.681Z,102363.80
2018-12-27T23:39:37.899Z,102365.52
2018-12-27T23:42:05.088Z,102364.20
2018-12-27T23:44:32.373Z,102360.70
2018-12-27T23:46:59.611Z,102362.48
2018-12-27T23:49:26.796Z,102362.51
2018-12-27T23:51:54.014Z,102362.05
2018-12-27T23:54:21.218Z,102352.45
2018-12-27T23:56:48.473Z,102354.19
2018-12-27T23:59:15.817Z,102355.08
